Leibnitz, Austria
Current Conditions -  °F | °C
As of 7:20 PM on Wednesday 28 Jan 2015 (Local Time) from LOWG Reporting Station
Clear Clear  
Wind Chill: 30°   Ceiling: Unl
Heat Index: 30°   Visibility: 6mi
Dew Point: 23°   Wind: 1mph
Humidity: 75%   Direction: NA
Pressure: 29.88"   Gusts: NA
Location:  46.78°N, 15.56°E
Report Text: LOWG 281820Z VRB01KT CAVOK M01/M05 Q1012 R17/1///95 NOSIG
Loading
Personal Weather Stations






























Interactive Weather Map New forecast layout! Learn more

10-Day Weather Forecast

Advertisements
Track Severe Weather on mobile